sensor_id;sensor_type;location;lat;lon;timestamp;P1;durP1;ratioP1;P2;durP2;ratioP2
65045;SDS011;54657;52.022;5.534;2023-03-01T00:01:46;7.18;;;5.10;;
65045;SDS011;54657;52.022;5.534;2023-03-01T00:04:12;7.82;;;5.43;;
65045;SDS011;54657;52.022;5.534;2023-03-01T00:06:38;6.90;;;5.25;;
65045;SDS011;54657;52.022;5.534;2023-03-01T00:09:04;7.10;;;5.05;;
65045;SDS011;54657;52.022;5.534;2023-03-01T00:11:30;9.32;;;4.63;;
65045;SDS011;54657;52.022;5.534;2023-03-01T00:13:58;9.27;;;4.95;;
65045;SDS011;54657;52.022;5.534;2023-03-01T00:16:27;8.55;;;5.78;;
65045;SDS011;54657;52.022;5.534;2023-03-01T00:18:54;7.97;;;5.85;;
65045;SDS011;54657;52.022;5.534;2023-03-01T00:21:21;7.05;;;5.68;;
65045;SDS011;54657;52.022;5.534;2023-03-01T00:23:47;14.73;;;6.55;;
65045;SDS011;54657;52.022;5.534;2023-03-01T00:26:14;11.95;;;6.85;;
65045;SDS011;54657;52.022;5.534;2023-03-01T00:28:41;14.27;;;7.88;;
65045;SDS011;54657;52.022;5.534;2023-03-01T00:31:11;26.45;;;8.98;;
65045;SDS011;54657;52.022;5.534;2023-03-01T00:33:43;55.65;;;21.90;;
65045;SDS011;54657;52.022;5.534;2023-03-01T00:36:09;100.38;;;38.25;;
65045;SDS011;54657;52.022;5.534;2023-03-01T00:38:37;59.05;;;24.75;;
65045;SDS011;54657;52.022;5.534;2023-03-01T00:41:09;18.65;;;8.80;;
65045;SDS011;54657;52.022;5.534;2023-03-01T00:43:36;8.68;;;6.10;;
65045;SDS011;54657;52.022;5.534;2023-03-01T00:46:02;9.50;;;6.15;;
65045;SDS011;54657;52.022;5.534;2023-03-01T00:48:29;6.93;;;5.63;;
65045;SDS011;54657;52.022;5.534;2023-03-01T00:50:55;8.25;;;5.70;;
65045;SDS011;54657;52.022;5.534;2023-03-01T00:53:21;8.45;;;5.40;;
65045;SDS011;54657;52.022;5.534;2023-03-01T00:55:46;6.78;;;5.40;;
65045;SDS011;54657;52.022;5.534;2023-03-01T00:58:12;6.38;;;5.15;;
65045;SDS011;54657;52.022;5.534;2023-03-01T01:00:37;8.55;;;5.88;;
65045;SDS011;54657;52.022;5.534;2023-03-01T01:03:03;8.07;;;5.38;;
65045;SDS011;54657;52.022;5.534;2023-03-01T01:05:28;7.03;;;5.97;;
65045;SDS011;54657;52.022;5.534;2023-03-01T01:07:54;7.88;;;5.50;;
65045;SDS011;54657;52.022;5.534;2023-03-01T01:10:19;10.00;;;5.85;;
65045;SDS011;54657;52.022;5.534;2023-03-01T01:12:45;7.20;;;6.10;;
65045;SDS011;54657;52.022;5.534;2023-03-01T01:15:11;7.05;;;6.00;;
65045;SDS011;54657;52.022;5.534;2023-03-01T01:17:39;7.47;;;5.70;;
65045;SDS011;54657;52.022;5.534;2023-03-01T01:20:05;6.43;;;5.63;;
65045;SDS011;54657;52.022;5.534;2023-03-01T01:22:31;6.15;;;5.30;;
65045;SDS011;54657;52.022;5.534;2023-03-01T01:24:56;7.60;;;5.82;;
65045;SDS011;54657;52.022;5.534;2023-03-01T01:27:22;6.97;;;5.95;;
65045;SDS011;54657;52.022;5.534;2023-03-01T01:29:48;7.40;;;5.38;;
65045;SDS011;54657;52.022;5.534;2023-03-01T01:32:13;7.72;;;5.63;;
65045;SDS011;54657;52.022;5.534;2023-03-01T01:34:39;8.13;;;5.80;;
65045;SDS011;54657;52.022;5.534;2023-03-01T01:37:04;7.05;;;5.50;;
65045;SDS011;54657;52.022;5.534;2023-03-01T01:39:32;6.63;;;5.57;;
65045;SDS011;54657;52.022;5.534;2023-03-01T01:41:59;6.90;;;5.68;;
65045;SDS011;54657;52.022;5.534;2023-03-01T01:44:27;8.02;;;5.68;;
65045;SDS011;54657;52.022;5.534;2023-03-01T01:46:55;7.18;;;5.72;;
65045;SDS011;54657;52.022;5.534;2023-03-01T01:57:49;9.40;;;5.82;;
65045;SDS011;54657;52.022;5.534;2023-03-01T02:00:19;7.90;;;5.75;;
65045;SDS011;54657;52.022;5.534;2023-03-01T02:02:48;9.70;;;5.60;;
65045;SDS011;54657;52.022;5.534;2023-03-01T02:05:19;7.47;;;5.47;;
65045;SDS011;54657;52.022;5.534;2023-03-01T02:07:50;7.80;;;5.70;;
65045;SDS011;54657;52.022;5.534;2023-03-01T02:10:16;10.02;;;6.03;;
65045;SDS011;54657;52.022;5.534;2023-03-01T02:12:42;11.48;;;6.03;;
65045;SDS011;54657;52.022;5.534;2023-03-01T02:15:08;6.80;;;5.47;;
65045;SDS011;54657;52.022;5.534;2023-03-01T02:17:34;8.77;;;5.85;;
65045;SDS011;54657;52.022;5.534;2023-03-01T02:20:18;6.78;;;5.50;;
65045;SDS011;54657;52.022;5.534;2023-03-01T02:23:07;7.32;;;5.68;;
65045;SDS011;54657;52.022;5.534;2023-03-01T02:25:35;7.93;;;5.80;;
65045;SDS011;54657;52.022;5.534;2023-03-01T02:30:50;10.27;;;5.65;;
65045;SDS011;54657;52.022;5.534;2023-03-01T02:33:37;7.97;;;5.88;;
65045;SDS011;54657;52.022;5.534;2023-03-01T02:36:05;7.85;;;5.75;;
65045;SDS011;54657;52.022;5.534;2023-03-01T02:38:36;7.70;;;5.47;;
65045;SDS011;54657;52.022;5.534;2023-03-01T02:41:02;8.43;;;5.55;;
65045;SDS011;54657;52.022;5.534;2023-03-01T02:43:29;6.60;;;5.88;;
65045;SDS011;54657;52.022;5.534;2023-03-01T02:45:58;7.32;;;6.05;;
65045;SDS011;54657;52.022;5.534;2023-03-01T02:48:37;8.32;;;5.45;;
65045;SDS011;54657;52.022;5.534;2023-03-01T02:56:45;8.65;;;6.15;;
65045;SDS011;54657;52.022;5.534;2023-03-01T02:59:15;8.45;;;5.25;;
65045;SDS011;54657;52.022;5.534;2023-03-01T03:01:42;9.80;;;6.25;;
65045;SDS011;54657;52.022;5.534;2023-03-01T03:04:10;7.40;;;5.40;;
65045;SDS011;54657;52.022;5.534;2023-03-01T03:06:41;7.53;;;6.05;;
65045;SDS011;54657;52.022;5.534;2023-03-01T03:09:08;8.07;;;5.95;;
65045;SDS011;54657;52.022;5.534;2023-03-01T03:11:34;7.85;;;5.57;;
65045;SDS011;54657;52.022;5.534;2023-03-01T03:14:01;10.40;;;6.15;;
65045;SDS011;54657;52.022;5.534;2023-03-01T03:16:27;9.15;;;6.18;;
65045;SDS011;54657;52.022;5.534;2023-03-01T03:18:54;8.60;;;6.15;;
65045;SDS011;54657;52.022;5.534;2023-03-01T03:21:20;6.82;;;5.65;;
65045;SDS011;54657;52.022;5.534;2023-03-01T03:23:45;8.90;;;5.40;;
65045;SDS011;54657;52.022;5.534;2023-03-01T03:26:11;6.55;;;5.40;;
65045;SDS011;54657;52.022;5.534;2023-03-01T03:28:38;5.97;;;5.05;;
65045;SDS011;54657;52.022;5.534;2023-03-01T03:31:05;7.90;;;6.07;;
65045;SDS011;54657;52.022;5.534;2023-03-01T03:33:32;6.20;;;5.18;;
65045;SDS011;54657;52.022;5.534;2023-03-01T03:35:58;10.63;;;5.63;;
65045;SDS011;54657;52.022;5.534;2023-03-01T03:38:24;7.78;;;5.47;;
65045;SDS011;54657;52.022;5.534;2023-03-01T03:41:11;8.18;;;5.25;;
65045;SDS011;54657;52.022;5.534;2023-03-01T03:43:36;7.18;;;5.60;;
65045;SDS011;54657;52.022;5.534;2023-03-01T03:46:04;7.18;;;5.95;;
65045;SDS011;54657;52.022;5.534;2023-03-01T03:48:30;8.05;;;5.75;;
65045;SDS011;54657;52.022;5.534;2023-03-01T03:50:58;7.30;;;5.25;;
65045;SDS011;54657;52.022;5.534;2023-03-01T03:53:24;8.60;;;6.07;;
65045;SDS011;54657;52.022;5.534;2023-03-01T03:55:50;7.13;;;5.38;;
65045;SDS011;54657;52.022;5.534;2023-03-01T03:58:17;7.35;;;5.90;;
65045;SDS011;54657;52.022;5.534;2023-03-01T04:00:45;7.32;;;5.85;;
65045;SDS011;54657;52.022;5.534;2023-03-01T04:03:12;8.77;;;5.53;;
65045;SDS011;54657;52.022;5.534;2023-03-01T04:05:39;7.75;;;5.38;;
65045;SDS011;54657;52.022;5.534;2023-03-01T04:08:06;7.55;;;5.80;;
65045;SDS011;54657;52.022;5.534;2023-03-01T04:10:36;7.55;;;5.30;;
65045;SDS011;54657;52.022;5.534;2023-03-01T04:13:05;8.82;;;6.47;;
65045;SDS011;54657;52.022;5.534;2023-03-01T04:15:31;7.13;;;5.55;;
65045;SDS011;54657;52.022;5.534;2023-03-01T04:17:58;6.95;;;5.30;;
65045;SDS011;54657;52.022;5.534;2023-03-01T04:20:26;7.65;;;5.82;;
65045;SDS011;54657;52.022;5.534;2023-03-01T04:22:58;11.10;;;5.97;;
65045;SDS011;54657;52.022;5.534;2023-03-01T04:28:26;8.05;;;5.80;;
65045;SDS011;54657;52.022;5.534;2023-03-01T04:30:55;7.47;;;5.72;;
65045;SDS011;54657;52.022;5.534;2023-03-01T04:33:22;8.35;;;5.13;;
65045;SDS011;54657;52.022;5.534;2023-03-01T04:35:49;10.60;;;5.93;;
65045;SDS011;54657;52.022;5.534;2023-03-01T04:38:15;8.00;;;5.28;;
65045;SDS011;54657;52.022;5.534;2023-03-01T04:40:42;7.80;;;5.25;;
65045;SDS011;54657;52.022;5.534;2023-03-01T04:43:08;7.05;;;5.78;;
65045;SDS011;54657;52.022;5.534;2023-03-01T04:45:34;8.23;;;5.40;;
65045;SDS011;54657;52.022;5.534;2023-03-01T04:48:00;8.27;;;5.82;;
65045;SDS011;54657;52.022;5.534;2023-03-01T04:50:27;7.70;;;5.43;;
65045;SDS011;54657;52.022;5.534;2023-03-01T04:52:53;6.45;;;5.47;;
65045;SDS011;54657;52.022;5.534;2023-03-01T04:55:19;8.07;;;5.78;;
65045;SDS011;54657;52.022;5.534;2023-03-01T04:57:45;7.93;;;5.30;;
65045;SDS011;54657;52.022;5.534;2023-03-01T05:00:12;8.20;;;5.43;;
65045;SDS011;54657;52.022;5.534;2023-03-01T05:02:51;9.05;;;6.18;;
65045;SDS011;54657;52.022;5.534;2023-03-01T05:05:23;7.78;;;5.53;;
65045;SDS011;54657;52.022;5.534;2023-03-01T05:07:54;5.95;;;4.97;;
65045;SDS011;54657;52.022;5.534;2023-03-01T05:10:21;9.23;;;5.85;;
65045;SDS011;54657;52.022;5.534;2023-03-01T05:12:47;7.93;;;5.20;;
65045;SDS011;54657;52.022;5.534;2023-03-01T05:15:13;5.82;;;4.97;;
65045;SDS011;54657;52.022;5.534;2023-03-01T05:17:39;7.47;;;6.00;;
65045;SDS011;54657;52.022;5.534;2023-03-01T05:20:05;8.00;;;5.53;;
65045;SDS011;54657;52.022;5.534;2023-03-01T05:22:33;6.63;;;5.65;;
65045;SDS011;54657;52.022;5.534;2023-03-01T05:25:00;9.32;;;5.50;;
65045;SDS011;54657;52.022;5.534;2023-03-01T05:27:26;6.18;;;5.28;;
65045;SDS011;54657;52.022;5.534;2023-03-01T05:29:51;8.90;;;5.35;;
65045;SDS011;54657;52.022;5.534;2023-03-01T05:32:17;6.18;;;5.35;;
65045;SDS011;54657;52.022;5.534;2023-03-01T05:34:42;6.32;;;5.15;;
65045;SDS011;54657;52.022;5.534;2023-03-01T05:37:11;9.02;;;5.63;;
65045;SDS011;54657;52.022;5.534;2023-03-01T05:39:37;7.30;;;5.18;;
65045;SDS011;54657;52.022;5.534;2023-03-01T05:42:02;5.93;;;4.95;;
65045;SDS011;54657;52.022;5.534;2023-03-01T05:44:28;5.95;;;5.30;;
65045;SDS011;54657;52.022;5.534;2023-03-01T05:46:54;8.25;;;5.90;;
65045;SDS011;54657;52.022;5.534;2023-03-01T05:49:23;9.40;;;5.25;;
65045;SDS011;54657;52.022;5.534;2023-03-01T05:51:49;13.68;;;5.43;;
65045;SDS011;54657;52.022;5.534;2023-03-01T05:54:17;6.57;;;5.35;;
65045;SDS011;54657;52.022;5.534;2023-03-01T05:56:43;8.02;;;5.15;;
65045;SDS011;54657;52.022;5.534;2023-03-01T05:59:09;5.68;;;4.68;;
65045;SDS011;54657;52.022;5.534;2023-03-01T06:01:35;6.22;;;5.15;;
65045;SDS011;54657;52.022;5.534;2023-03-01T06:04:02;6.30;;;4.80;;
65045;SDS011;54657;52.022;5.534;2023-03-01T06:06:28;7.78;;;5.35;;
65045;SDS011;54657;52.022;5.534;2023-03-01T06:08:54;8.48;;;5.47;;
65045;SDS011;54657;52.022;5.534;2023-03-01T06:11:19;7.20;;;5.30;;
65045;SDS011;54657;52.022;5.534;2023-03-01T06:13:46;5.60;;;4.63;;
65045;SDS011;54657;52.022;5.534;2023-03-01T06:16:13;10.35;;;5.38;;
65045;SDS011;54657;52.022;5.534;2023-03-01T06:18:39;7.93;;;5.90;;
65045;SDS011;54657;52.022;5.534;2023-03-01T06:21:06;9.13;;;5.53;;
65045;SDS011;54657;52.022;5.534;2023-03-01T06:23:32;6.97;;;5.20;;
65045;SDS011;54657;52.022;5.534;2023-03-01T06:25:58;6.35;;;5.05;;
65045;SDS011;54657;52.022;5.534;2023-03-01T06:28:24;8.77;;;5.95;;
65045;SDS011;54657;52.022;5.534;2023-03-01T06:30:51;8.52;;;5.55;;
65045;SDS011;54657;52.022;5.534;2023-03-01T06:33:17;6.60;;;5.65;;
65045;SDS011;54657;52.022;5.534;2023-03-01T06:35:45;6.80;;;5.40;;
65045;SDS011;54657;52.022;5.534;2023-03-01T06:38:11;7.88;;;6.10;;
65045;SDS011;54657;52.022;5.534;2023-03-01T06:40:39;8.20;;;6.13;;
65045;SDS011;54657;52.022;5.534;2023-03-01T06:43:05;7.03;;;5.28;;
65045;SDS011;54657;52.022;5.534;2023-03-01T06:45:32;6.22;;;5.15;;
65045;SDS011;54657;52.022;5.534;2023-03-01T06:48:04;7.50;;;5.70;;
65045;SDS011;54657;52.022;5.534;2023-03-01T06:50:31;6.93;;;5.18;;
65045;SDS011;54657;52.022;5.534;2023-03-01T06:52:57;5.75;;;5.18;;
65045;SDS011;54657;52.022;5.534;2023-03-01T06:55:23;7.30;;;5.53;;
65045;SDS011;54657;52.022;5.534;2023-03-01T06:57:53;8.98;;;5.85;;
65045;SDS011;54657;52.022;5.534;2023-03-01T07:00:23;8.13;;;5.75;;
65045;SDS011;54657;52.022;5.534;2023-03-01T07:02:49;7.25;;;5.25;;
65045;SDS011;54657;52.022;5.534;2023-03-01T07:05:15;9.63;;;5.40;;
65045;SDS011;54657;52.022;5.534;2023-03-01T07:07:41;7.90;;;5.85;;
65045;SDS011;54657;52.022;5.534;2023-03-01T07:10:06;8.05;;;6.00;;
65045;SDS011;54657;52.022;5.534;2023-03-01T07:12:33;7.78;;;5.95;;
65045;SDS011;54657;52.022;5.534;2023-03-01T07:14:58;11.18;;;5.50;;
65045;SDS011;54657;52.022;5.534;2023-03-01T07:17:24;10.82;;;7.20;;
65045;SDS011;54657;52.022;5.534;2023-03-01T07:19:49;9.98;;;7.50;;
65045;SDS011;54657;52.022;5.534;2023-03-01T07:22:15;10.57;;;7.15;;
65045;SDS011;54657;52.022;5.534;2023-03-01T07:24:41;11.13;;;6.65;;
65045;SDS011;54657;52.022;5.534;2023-03-01T07:27:07;8.30;;;5.70;;
65045;SDS011;54657;52.022;5.534;2023-03-01T07:29:33;7.72;;;6.03;;
65045;SDS011;54657;52.022;5.534;2023-03-01T07:32:01;10.55;;;6.03;;
65045;SDS011;54657;52.022;5.534;2023-03-01T07:34:27;9.13;;;6.43;;
65045;SDS011;54657;52.022;5.534;2023-03-01T07:36:53;11.18;;;7.10;;
65045;SDS011;54657;52.022;5.534;2023-03-01T07:39:21;11.88;;;7.78;;
65045;SDS011;54657;52.022;5.534;2023-03-01T07:41:49;11.07;;;8.48;;
65045;SDS011;54657;52.022;5.534;2023-03-01T07:44:15;14.02;;;9.25;;
65045;SDS011;54657;52.022;5.534;2023-03-01T07:46:42;14.48;;;8.93;;
65045;SDS011;54657;52.022;5.534;2023-03-01T07:49:11;12.40;;;8.70;;
65045;SDS011;54657;52.022;5.534;2023-03-01T07:51:36;12.98;;;7.97;;
65045;SDS011;54657;52.022;5.534;2023-03-01T07:54:11;9.38;;;7.10;;
65045;SDS011;54657;52.022;5.534;2023-03-01T07:56:36;12.63;;;7.38;;
65045;SDS011;54657;52.022;5.534;2023-03-01T07:59:02;15.02;;;7.82;;
65045;SDS011;54657;52.022;5.534;2023-03-01T08:01:27;9.50;;;6.78;;
65045;SDS011;54657;52.022;5.534;2023-03-01T08:03:55;12.00;;;6.95;;
65045;SDS011;54657;52.022;5.534;2023-03-01T08:06:34;9.65;;;6.53;;
65045;SDS011;54657;52.022;5.534;2023-03-01T08:09:05;8.35;;;6.35;;
65045;SDS011;54657;52.022;5.534;2023-03-01T08:11:30;11.23;;;7.32;;
65045;SDS011;54657;52.022;5.534;2023-03-01T08:13:56;9.45;;;6.68;;
65045;SDS011;54657;52.022;5.534;2023-03-01T08:16:24;11.40;;;7.13;;
65045;SDS011;54657;52.022;5.534;2023-03-01T08:18:50;14.43;;;7.53;;
65045;SDS011;54657;52.022;5.534;2023-03-01T08:21:16;10.55;;;7.22;;
65045;SDS011;54657;52.022;5.534;2023-03-01T08:23:42;9.32;;;6.82;;
65045;SDS011;54657;52.022;5.534;2023-03-01T08:26:09;14.48;;;6.95;;
65045;SDS011;54657;52.022;5.534;2023-03-01T08:28:39;12.48;;;7.00;;
65045;SDS011;54657;52.022;5.534;2023-03-01T08:31:19;9.88;;;6.97;;
65045;SDS011;54657;52.022;5.534;2023-03-01T08:33:54;10.65;;;6.97;;
65045;SDS011;54657;52.022;5.534;2023-03-01T08:36:24;10.27;;;7.65;;
65045;SDS011;54657;52.022;5.534;2023-03-01T08:39:18;10.10;;;7.15;;
65045;SDS011;54657;52.022;5.534;2023-03-01T08:41:45;10.48;;;6.80;;
65045;SDS011;54657;52.022;5.534;2023-03-01T08:44:14;9.40;;;7.55;;
65045;SDS011;54657;52.022;5.534;2023-03-01T08:46:41;10.90;;;7.18;;
65045;SDS011;54657;52.022;5.534;2023-03-01T08:49:11;9.05;;;7.00;;
65045;SDS011;54657;52.022;5.534;2023-03-01T08:51:38;10.05;;;6.88;;
65045;SDS011;54657;52.022;5.534;2023-03-01T08:54:05;11.35;;;7.50;;
65045;SDS011;54657;52.022;5.534;2023-03-01T08:56:34;11.70;;;7.85;;
65045;SDS011;54657;52.022;5.534;2023-03-01T08:59:00;8.52;;;6.05;;
65045;SDS011;54657;52.022;5.534;2023-03-01T09:01:25;7.85;;;6.10;;
65045;SDS011;54657;52.022;5.534;2023-03-01T09:03:51;9.38;;;5.95;;
65045;SDS011;54657;52.022;5.534;2023-03-01T09:06:17;6.68;;;5.28;;
65045;SDS011;54657;52.022;5.534;2023-03-01T09:08:44;9.18;;;5.50;;
65045;SDS011;54657;52.022;5.534;2023-03-01T09:11:14;6.72;;;4.90;;
65045;SDS011;54657;52.022;5.534;2023-03-01T09:13:41;6.35;;;4.80;;
65045;SDS011;54657;52.022;5.534;2023-03-01T09:16:08;8.93;;;4.90;;
65045;SDS011;54657;52.022;5.534;2023-03-01T09:18:35;7.53;;;4.97;;
65045;SDS011;54657;52.022;5.534;2023-03-01T09:21:05;5.72;;;4.80;;
65045;SDS011;54657;52.022;5.534;2023-03-01T09:23:33;5.97;;;5.10;;
65045;SDS011;54657;52.022;5.534;2023-03-01T09:26:01;5.60;;;4.50;;
65045;SDS011;54657;52.022;5.534;2023-03-01T09:28:27;5.65;;;4.93;;
65045;SDS011;54657;52.022;5.534;2023-03-01T09:30:53;6.55;;;4.65;;
65045;SDS011;54657;52.022;5.534;2023-03-01T09:33:18;8.07;;;4.15;;
65045;SDS011;54657;52.022;5.534;2023-03-01T09:35:44;5.68;;;3.78;;
65045;SDS011;54657;52.022;5.534;2023-03-01T09:38:12;4.32;;;3.58;;
65045;SDS011;54657;52.022;5.534;2023-03-01T09:40:42;5.82;;;3.47;;
65045;SDS011;54657;52.022;5.534;2023-03-01T09:43:26;4.95;;;3.17;;
65045;SDS011;54657;52.022;5.534;2023-03-01T09:46:00;3.92;;;3.17;;
65045;SDS011;54657;52.022;5.534;2023-03-01T09:48:32;4.45;;;3.28;;
65045;SDS011;54657;52.022;5.534;2023-03-01T09:51:05;4.40;;;3.03;;
65045;SDS011;54657;52.022;5.534;2023-03-01T09:53:34;6.60;;;3.67;;
65045;SDS011;54657;52.022;5.534;2023-03-01T09:56:11;4.35;;;3.25;;
65045;SDS011;54657;52.022;5.534;2023-03-01T10:01:26;5.57;;;3.15;;
65045;SDS011;54657;52.022;5.534;2023-03-01T10:04:28;6.60;;;4.00;;
65045;SDS011;54657;52.022;5.534;2023-03-01T10:07:27;8.70;;;3.53;;
65045;SDS011;54657;52.022;5.534;2023-03-01T10:10:06;5.65;;;3.42;;
65045;SDS011;54657;52.022;5.534;2023-03-01T10:12:39;4.88;;;3.38;;
65045;SDS011;54657;52.022;5.534;2023-03-01T10:17:51;5.15;;;3.08;;
65045;SDS011;54657;52.022;5.534;2023-03-01T10:20:25;4.63;;;2.50;;
65045;SDS011;54657;52.022;5.534;2023-03-01T10:23:14;7.75;;;3.03;;
65045;SDS011;54657;52.022;5.534;2023-03-01T10:26:20;4.30;;;2.75;;
65045;SDS011;54657;52.022;5.534;2023-03-01T10:31:29;6.00;;;3.03;;
65045;SDS011;54657;52.022;5.534;2023-03-01T10:34:09;4.50;;;3.00;;
65045;SDS011;54657;52.022;5.534;2023-03-01T10:36:41;4.35;;;3.05;;
65045;SDS011;54657;52.022;5.534;2023-03-01T10:39:15;4.82;;;2.65;;
65045;SDS011;54657;52.022;5.534;2023-03-01T10:44:45;3.47;;;2.47;;
65045;SDS011;54657;52.022;5.534;2023-03-01T10:47:23;4.40;;;2.55;;
65045;SDS011;54657;52.022;5.534;2023-03-01T10:50:01;5.63;;;3.40;;
65045;SDS011;54657;52.022;5.534;2023-03-01T10:55:19;4.82;;;2.90;;
65045;SDS011;54657;52.022;5.534;2023-03-01T10:58:15;4.18;;;2.78;;
65045;SDS011;54657;52.022;5.534;2023-03-01T11:00:50;4.78;;;3.05;;
65045;SDS011;54657;52.022;5.534;2023-03-01T11:03:18;3.47;;;2.70;;
65045;SDS011;54657;52.022;5.534;2023-03-01T11:08:43;4.90;;;2.65;;
65045;SDS011;54657;52.022;5.534;2023-03-01T11:16:36;3.63;;;2.78;;
65045;SDS011;54657;52.022;5.534;2023-03-01T11:21:36;4.43;;;2.90;;
65045;SDS011;54657;52.022;5.534;2023-03-01T11:24:08;3.53;;;2.58;;
65045;SDS011;54657;52.022;5.534;2023-03-01T11:26:38;5.25;;;2.97;;
65045;SDS011;54657;52.022;5.534;2023-03-01T11:29:09;3.33;;;2.78;;
65045;SDS011;54657;52.022;5.534;2023-03-01T11:31:42;5.88;;;3.80;;
65045;SDS011;54657;52.022;5.534;2023-03-01T11:34:17;4.88;;;3.40;;
65045;SDS011;54657;52.022;5.534;2023-03-01T11:36:52;4.10;;;2.75;;
65045;SDS011;54657;52.022;5.534;2023-03-01T11:41:59;4.05;;;3.58;;
65045;SDS011;54657;52.022;5.534;2023-03-01T11:44:47;4.75;;;3.75;;
65045;SDS011;54657;52.022;5.534;2023-03-01T12:03:33;3.72;;;3.17;;
65045;SDS011;54657;52.022;5.534;2023-03-01T12:09:25;5.05;;;3.13;;
65045;SDS011;54657;52.022;5.534;2023-03-01T12:20:40;3.35;;;2.80;;
65045;SDS011;54657;52.022;5.534;2023-03-01T12:26:11;6.03;;;2.75;;
65045;SDS011;54657;52.022;5.534;2023-03-01T12:36:55;4.65;;;3.13;;
65045;SDS011;54657;52.022;5.534;2023-03-01T12:53:24;6.90;;;3.50;;
65045;SDS011;54657;52.022;5.534;2023-03-01T12:55:58;6.85;;;3.25;;
65045;SDS011;54657;52.022;5.534;2023-03-01T13:03:57;3.90;;;3.00;;
65045;SDS011;54657;52.022;5.534;2023-03-01T13:11:44;5.32;;;3.47;;
65045;SDS011;54657;52.022;5.534;2023-03-01T13:16:51;6.97;;;3.58;;
65045;SDS011;54657;52.022;5.534;2023-03-01T13:19:19;6.82;;;4.22;;
65045;SDS011;54657;52.022;5.534;2023-03-01T13:21:45;5.18;;;3.75;;
65045;SDS011;54657;52.022;5.534;2023-03-01T13:29:54;4.95;;;3.75;;
65045;SDS011;54657;52.022;5.534;2023-03-01T13:37:43;5.65;;;3.10;;
65045;SDS011;54657;52.022;5.534;2023-03-01T13:42:44;3.15;;;2.80;;
65045;SDS011;54657;52.022;5.534;2023-03-01T13:45:21;4.65;;;3.13;;
65045;SDS011;54657;52.022;5.534;2023-03-01T13:47:54;5.38;;;3.45;;
65045;SDS011;54657;52.022;5.534;2023-03-01T13:50:27;3.92;;;3.28;;
65045;SDS011;54657;52.022;5.534;2023-03-01T13:52:59;4.40;;;2.65;;
65045;SDS011;54657;52.022;5.534;2023-03-01T13:55:44;4.97;;;3.33;;
65045;SDS011;54657;52.022;5.534;2023-03-01T13:58:23;4.22;;;2.92;;
65045;SDS011;54657;52.022;5.534;2023-03-01T14:05:59;5.03;;;3.13;;
65045;SDS011;54657;52.022;5.534;2023-03-01T14:08:34;4.43;;;2.80;;
65045;SDS011;54657;52.022;5.534;2023-03-01T14:24:34;5.28;;;3.35;;
65045;SDS011;54657;52.022;5.534;2023-03-01T14:27:02;4.47;;;3.00;;
65045;SDS011;54657;52.022;5.534;2023-03-01T14:29:35;4.45;;;3.05;;
65045;SDS011;54657;52.022;5.534;2023-03-01T14:32:12;4.63;;;3.10;;
65045;SDS011;54657;52.022;5.534;2023-03-01T14:34:53;4.05;;;3.00;;
65045;SDS011;54657;52.022;5.534;2023-03-01T14:37:33;4.82;;;3.42;;
65045;SDS011;54657;52.022;5.534;2023-03-01T14:43:30;4.05;;;3.00;;
65045;SDS011;54657;52.022;5.534;2023-03-01T14:53:05;3.47;;;2.90;;
65045;SDS011;54657;52.022;5.534;2023-03-01T14:55:41;3.65;;;2.70;;
65045;SDS011;54657;52.022;5.534;2023-03-01T14:58:12;5.43;;;3.15;;
65045;SDS011;54657;52.022;5.534;2023-03-01T15:00:42;3.25;;;2.88;;
65045;SDS011;54657;52.022;5.534;2023-03-01T15:07:28;4.28;;;2.88;;
65045;SDS011;54657;52.022;5.534;2023-03-01T15:09:59;4.30;;;2.83;;
65045;SDS011;54657;52.022;5.534;2023-03-01T15:15:08;4.20;;;2.58;;
65045;SDS011;54657;52.022;5.534;2023-03-01T15:17:54;5.38;;;3.42;;
65045;SDS011;54657;52.022;5.534;2023-03-01T15:20:36;4.28;;;3.08;;
65045;SDS011;54657;52.022;5.534;2023-03-01T15:23:02;5.10;;;3.10;;
65045;SDS011;54657;52.022;5.534;2023-03-01T15:25:43;3.33;;;2.65;;
65045;SDS011;54657;52.022;5.534;2023-03-01T15:28:21;5.43;;;3.00;;
65045;SDS011;54657;52.022;5.534;2023-03-01T15:31:20;3.70;;;2.80;;
65045;SDS011;54657;52.022;5.534;2023-03-01T15:33:50;4.70;;;2.80;;
65045;SDS011;54657;52.022;5.534;2023-03-01T15:39:23;3.25;;;2.75;;
65045;SDS011;54657;52.022;5.534;2023-03-01T15:42:04;3.58;;;2.95;;
65045;SDS011;54657;52.022;5.534;2023-03-01T15:44:41;4.50;;;2.85;;
65045;SDS011;54657;52.022;5.534;2023-03-01T15:52:21;2.75;;;2.22;;
65045;SDS011;54657;52.022;5.534;2023-03-01T15:55:05;2.70;;;2.13;;
65045;SDS011;54657;52.022;5.534;2023-03-01T15:57:43;4.88;;;2.70;;
65045;SDS011;54657;52.022;5.534;2023-03-01T16:00:21;3.20;;;2.53;;
65045;SDS011;54657;52.022;5.534;2023-03-01T16:02:49;3.08;;;2.40;;
65045;SDS011;54657;52.022;5.534;2023-03-01T16:05:17;3.95;;;2.95;;
65045;SDS011;54657;52.022;5.534;2023-03-01T16:11:18;8.30;;;4.75;;
65045;SDS011;54657;52.022;5.534;2023-03-01T16:13:45;4.60;;;2.63;;
65045;SDS011;54657;52.022;5.534;2023-03-01T16:16:13;4.28;;;3.22;;
65045;SDS011;54657;52.022;5.534;2023-03-01T16:18:41;5.90;;;2.67;;
65045;SDS011;54657;52.022;5.534;2023-03-01T16:21:10;4.60;;;2.85;;
65045;SDS011;54657;52.022;5.534;2023-03-01T16:23:55;3.40;;;3.10;;
65045;SDS011;54657;52.022;5.534;2023-03-01T16:26:21;7.32;;;3.10;;
65045;SDS011;54657;52.022;5.534;2023-03-01T16:28:46;4.72;;;2.85;;
65045;SDS011;54657;52.022;5.534;2023-03-01T16:31:15;5.88;;;3.20;;
65045;SDS011;54657;52.022;5.534;2023-03-01T16:33:43;4.78;;;2.92;;
65045;SDS011;54657;52.022;5.534;2023-03-01T16:36:14;4.03;;;3.35;;
65045;SDS011;54657;52.022;5.534;2023-03-01T16:38:40;4.93;;;3.15;;
65045;SDS011;54657;52.022;5.534;2023-03-01T16:41:06;4.28;;;3.55;;
65045;SDS011;54657;52.022;5.534;2023-03-01T16:43:37;5.40;;;3.78;;
65045;SDS011;54657;52.022;5.534;2023-03-01T16:46:26;4.68;;;3.47;;
65045;SDS011;54657;52.022;5.534;2023-03-01T16:48:52;6.90;;;3.47;;
65045;SDS011;54657;52.022;5.534;2023-03-01T16:51:18;4.22;;;3.22;;
65045;SDS011;54657;52.022;5.534;2023-03-01T16:53:45;5.28;;;3.63;;
65045;SDS011;54657;52.022;5.534;2023-03-01T16:56:11;4.97;;;3.40;;
65045;SDS011;54657;52.022;5.534;2023-03-01T16:58:38;6.05;;;4.15;;
65045;SDS011;54657;52.022;5.534;2023-03-01T17:01:06;6.78;;;4.45;;
65045;SDS011;54657;52.022;5.534;2023-03-01T17:03:34;6.70;;;4.00;;
65045;SDS011;54657;52.022;5.534;2023-03-01T17:06:07;5.80;;;3.95;;
65045;SDS011;54657;52.022;5.534;2023-03-01T17:08:35;5.18;;;3.70;;
65045;SDS011;54657;52.022;5.534;2023-03-01T17:11:02;4.65;;;3.50;;
65045;SDS011;54657;52.022;5.534;2023-03-01T17:13:30;8.48;;;3.75;;
65045;SDS011;54657;52.022;5.534;2023-03-01T17:15:59;5.55;;;3.58;;
65045;SDS011;54657;52.022;5.534;2023-03-01T17:18:24;5.35;;;3.83;;
65045;SDS011;54657;52.022;5.534;2023-03-01T17:20:50;5.18;;;4.00;;
65045;SDS011;54657;52.022;5.534;2023-03-01T17:23:15;3.83;;;3.30;;
65045;SDS011;54657;52.022;5.534;2023-03-01T17:25:44;6.88;;;3.33;;
65045;SDS011;54657;52.022;5.534;2023-03-01T17:28:10;5.55;;;3.20;;
65045;SDS011;54657;52.022;5.534;2023-03-01T17:30:36;5.80;;;3.35;;
65045;SDS011;54657;52.022;5.534;2023-03-01T17:33:05;4.30;;;3.50;;
65045;SDS011;54657;52.022;5.534;2023-03-01T17:35:31;5.57;;;3.88;;
65045;SDS011;54657;52.022;5.534;2023-03-01T17:38:03;6.60;;;4.22;;
65045;SDS011;54657;52.022;5.534;2023-03-01T17:40:29;7.28;;;4.22;;
65045;SDS011;54657;52.022;5.534;2023-03-01T17:42:56;5.72;;;3.90;;
65045;SDS011;54657;52.022;5.534;2023-03-01T17:45:22;6.35;;;4.25;;
65045;SDS011;54657;52.022;5.534;2023-03-01T17:47:47;5.25;;;3.80;;
65045;SDS011;54657;52.022;5.534;2023-03-01T17:50:13;5.53;;;3.80;;
65045;SDS011;54657;52.022;5.534;2023-03-01T17:52:38;5.50;;;4.00;;
65045;SDS011;54657;52.022;5.534;2023-03-01T17:55:05;4.70;;;3.80;;